Данни от 18.01.2020 г. 05:42:01

Температура вътрешна: 19.2 °C
Температура външна: 2.8 °C
Атмосферно налягане: 1012.8 hPa
Атмосферно налягане на морско равнище: 1030.9 hPa
Влажност: 49.6 %



История от последните 24 часа

Дата и часTin [°C]P [hPa]Psl [hPa]H [%]Tout [°C]
   18.01.2020 г. 05:30:01      19.2      1012.8      1030.9      50.3      3.3   
   18.01.2020 г. 05:00:01      19.3      1012.9      1031.0      49.7      1.8   
   18.01.2020 г. 04:30:00      19.3      1012.9      1031.0      49.6      3.3   
   18.01.2020 г. 04:00:01      19.4      1013.2      1031.3      49.5      3.6   
   18.01.2020 г. 03:30:00      19.5      1013.5      1031.6      48.8      3.8   
   18.01.2020 г. 03:00:01      19.5      1013.6      1031.7      49.1      3.4   
   18.01.2020 г. 02:30:00      19.6      1013.6      1031.7      49.0      3.6   
   18.01.2020 г. 02:00:01      19.7      1013.6      1031.7      49.5      3.3   
   18.01.2020 г. 01:30:00      19.8      1013.7      1031.8      48.9      3.5   
   18.01.2020 г. 01:00:01      19.8      1013.8      1031.9      49.3      3.5   
   18.01.2020 г. 00:30:00      19.9      1013.8      1031.9      49.0      3.6   
   18.01.2020 г. 00:00:01      20.0      1014.1      1032.2      48.1      3.5   
   17.01.2020 г. 23:30:00      20.2      1014.3      1032.5      47.9      3.5   
   17.01.2020 г. 23:00:01      20.3      1014.5      1032.6      48.4      3.3   
   17.01.2020 г. 22:30:00      20.3      1014.5      1032.7      47.7      3.0   
   17.01.2020 г. 22:00:01      20.2      1014.7      1032.8      46.9      3.4   
   17.01.2020 г. 21:30:01      20.2      1014.8      1032.9      47.3      3.8   
   17.01.2020 г. 21:00:01      19.9      1014.9      1033.1      46.6      3.3   
   17.01.2020 г. 20:30:01      19.9      1015.0      1033.1      46.2      3.3   
   17.01.2020 г. 20:00:01      19.8      1015.1      1033.2      47.2      3.8   
   17.01.2020 г. 19:30:01      19.6      1015.0      1033.1      46.8      3.3   
   17.01.2020 г. 19:00:01      19.4      1014.9      1033.0      46.7      3.5   
   17.01.2020 г. 18:30:01      19.2      1014.7      1032.8      46.5      3.3   
   17.01.2020 г. 18:00:01      19.0      1014.6      1032.7      46.2      3.6   
   17.01.2020 г. 17:30:01      18.8      1014.4      1032.5      46.2      3.8   
   17.01.2020 г. 17:00:01      18.7      1014.2      1032.3      45.9      3.6   
   17.01.2020 г. 16:30:01      18.4      1014.1      1032.2      46.7      3.6   
   17.01.2020 г. 16:00:01      18.1      1014.2      1032.3      46.3      3.4   
   17.01.2020 г. 15:30:01      18.1      1014.3      1032.4      47.2      3.5   
   17.01.2020 г. 15:00:01      18.2      1014.4      1032.5      46.8      4.3   
   17.01.2020 г. 14:30:01      18.3      1014.2      1032.3      46.8      4.4   
   17.01.2020 г. 14:00:00      18.3      1014.2      1032.3      46.8      4.5   
   17.01.2020 г. 13:30:01      18.4      1014.3      1032.4      46.6      4.2   
   17.01.2020 г. 13:00:00      18.4      1014.4      1032.6      46.8      3.0   
   17.01.2020 г. 12:30:01      18.4      1014.7      1032.9      46.9      1.8   
   17.01.2020 г. 12:00:00      18.5      1014.9      1033.0      46.5      0.6   
   17.01.2020 г. 11:30:01      18.4      1015.3      1033.4      46.4      3.6   
   17.01.2020 г. 11:00:00      18.6      1015.4      1033.6      47.9      3.5   
   17.01.2020 г. 10:30:01      18.6      1015.4      1033.5      47.1      1.8   
   17.01.2020 г. 10:00:00      18.7      1015.1      1033.2      47.7      0.4   
   17.01.2020 г. 09:30:01      18.8      1014.9      1033.0      47.9      3.9   
   17.01.2020 г. 09:00:00      18.9      1014.9      1033.0      47.8      3.8   
   17.01.2020 г. 08:30:01      18.9      1014.6      1032.8      47.7      3.5   
   17.01.2020 г. 08:00:00      19.0      1014.5      1032.6      47.9      3.3   
   17.01.2020 г. 07:30:01      19.1      1014.4      1032.5      47.9      3.3   
   17.01.2020 г. 07:00:01      19.1      1014.3      1032.4      47.9      2.8   
   17.01.2020 г. 06:30:01      19.1      1014.3      1032.4      47.9      2.0   
   17.01.2020 г. 06:00:01      19.0      1013.9      1032.0      48.8      2.3   

BaroSL graphic

TEMPE graphic